Flight Track Log - Related Links

Times and Time Zones

All times are in EDT time to prevent confusion due to time zone crossing. See the ACA301 flight status page for this flight to view local times or setup timezone preferences in your user account.

Time Position Orientation Groundspeed Altitude Reporting Facility
EDT Latitude Longitude Course Direction KTS MPH feet Rate Location/Type
Mon 06:04:23 AM 38.8667 -77.0500 339° North 122 140 900  Level Potomac TRACON
Mon 06:05:17 AM 38.9000 -77.0833 322° Northwest 165 190 3,300 2,384 Climbing Potomac TRACON
Mon 06:06:54 AM 38.9717 -77.1750 315° West 220 253 6,900 2,571 Climbing Washington Center
Mon 06:07:00 AM 39.2500 -77.2426 337° Northwest  Level FlightAware Approximate
Mon 06:07:51 AM 39.0125 -77.2558 303° West 245 282 9,900  Level Washington Center
Mon 06:08:00 AM 39.3536 -77.3001 337° Northwest  Level FlightAware Approximate
Mon 06:08:51 AM 39.0611 -77.3453 305° West 282 325 11,400  Level Washington Center
Mon 06:09:00 AM 39.4558 -77.3612 339° North  Level FlightAware Approximate
Mon 06:09:51 AM 39.1139 -77.4481 304° West 317 365 13,600  Level Washington Center
Mon 06:10:52 AM 39.1983 -77.5119 330° Northwest 338 389 15,900 2,107 Climbing Washington Center
Mon 06:13:16 AM 39.4639 -77.4783 North 373 429 20,800 1,902 Climbing New York Center
Mon 06:14:17 AM 39.5706 -77.4750 North 390 449 22,400 1,714 Climbing New York Center
Mon 06:15:15 AM 39.6769 -77.5094 346° North 384 442 24,200 1,765 Climbing New York Center
Mon 06:16:16 AM 39.7814 -77.5436 346° North 384 442 25,900 1,800 Climbing New York Center
Mon 06:17:15 AM 39.8856 -77.5808 345° North 389 448 27,800 1,866 Climbing New York Center
Mon 06:18:15 AM 39.9919 -77.6156 346° North 389 448 29,600 1,623 Climbing New York Center
Mon 06:19:17 AM 40.0983 -77.6506 346° North 389 448 31,100 1,171 Climbing New York Center
Mon 06:20:18 AM 40.2111 -77.6861 346° North 395 455 32,000 271 Climbing New York Center
Mon 06:22:36 AM 40.4472 -77.7700 345° North 388 447 32,000  Level Cleveland Center
Mon 06:23:36 AM 40.5631 -77.8089 346° North 388 447 32,000  Level Cleveland Center
Mon 06:24:35 AM 40.6681 -77.8456 345° North 388 447 32,000  Level Cleveland Center
Mon 06:25:35 AM 40.7731 -77.8797 346° North 382 440 32,000  Level Cleveland Center
Mon 06:26:36 AM 40.8761 -77.9139 346° North 382 440 32,000  Level Cleveland Center
Mon 06:27:36 AM 40.9792 -77.9508 345° North 382 440 32,000  Level Cleveland Center
Mon 06:28:36 AM 41.0819 -77.9853 346° North 382 440 32,000  Level Cleveland Center
Mon 06:29:36 AM 41.1850 -78.0200 346° North 382 440 32,000  Level Cleveland Center
Mon 06:30:36 AM 41.2881 -78.0572 345° North 382 440 32,000  Level Cleveland Center
Mon 06:31:35 AM 41.3889 -78.0922 345° North 382 440 32,000  Level Cleveland Center
Mon 06:32:36 AM 41.4814 -78.1247 345° North 377 434 32,000  Level Cleveland Center
Mon 06:33:36 AM 41.5800 -78.1597 345° North 377 434 32,000  Level Cleveland Center
Mon 06:34:36 AM 41.6831 -78.1947 346° North 377 434 32,000  Level Cleveland Center
Mon 06:35:36 AM 41.7881 -78.2328 345° North 377 434 32,000  Level Cleveland Center
Mon 06:36:36 AM 41.9056 -78.2758 345° North 399 459 32,000  Level Cleveland Center
Mon 06:37:35 AM 42.0272 -78.3189 345° North 428 493 32,000  Level Cleveland Center
Mon 06:38:36 AM 42.1533 -78.3678 344° North 455 524 32,000  Level Cleveland Center
Mon 06:39:35 AM 42.2939 -78.4189 345° North 471 542 32,000 -300 Level Cleveland Center
Mon 06:40:36 AM 42.4242 -78.4622 346° North 471 542 31,400 -843 Descending Cleveland Center
Mon 06:41:36 AM 42.5522 -78.5117 344° North 476 548 30,300 -1,450 Descending Cleveland Center
Mon 06:42:36 AM 42.6800 -78.5553 346° North 476 548 28,500 -1,850 Descending Cleveland Center
Mon 06:43:36 AM 42.8017 -78.5994 345° North 469 540 26,600 -1,950 Descending Cleveland Center
Mon 06:44:36 AM 42.9192 -78.6469 344° North 451 519 24,600 -2,103 Descending Cleveland Center
Mon 06:46:30 AM 43.0500 -78.8833 307° West 440 506 20,500 -2,310 Descending Toronto Center
Mon 06:47:30 AM 43.1167 -79.0000 308° West 410 472 17,900 -2,700 Descending Toronto Center
Mon 06:48:30 AM 43.1833 -79.1000 312° West 390 449 15,100 -2,150 Descending Toronto Center
Mon 06:49:30 AM 43.2333 -79.2167 300° West 360 414 13,600 -1,350 Descending Toronto Center
Mon 06:50:30 AM 43.2833 -79.3167 305° West 310 357 12,400 -800 Descending Toronto Center
Mon 06:51:30 AM 43.3667 -79.3833 330° Northwest 300 345 12,000 -450 Descending Toronto Center
Mon 06:52:30 AM 43.4333 -79.4333 331° Northwest 300 345 11,500 -750 Descending Toronto Center
Mon 06:53:30 AM 43.5000 -79.4667 340° North 290 334 10,500 -1,300 Descending Toronto Center
Mon 06:54:30 AM 43.5667 -79.5167 331° Northwest 260 299 8,900 -1,750 Descending Toronto Center
Mon 06:55:30 AM 43.6167 -79.4667 36° Northeast 250 288 7,000 -2,200 Descending Toronto Center
Mon 06:56:30 AM 43.6667 -79.4000 44° Northeast 240 276 4,500 -2,000 Descending Toronto Center
Mon 06:57:30 AM 43.7167 -79.3833 14° North 230 265 3,000 -750 Descending Toronto Center
Mon 06:58:30 AM 43.7500 -79.4500 305° West 200 230 3,000  Level Toronto Center

Login

Don't have an account? Register now (free) for customized features, flight alerts, and more!